createdAt,value
2017-08-27T00:01:11.047Z,70.40
2017-08-27T00:03:38.717Z,71.00
2017-08-27T00:06:06.773Z,71.30
2017-08-27T00:08:34.525Z,71.20
2017-08-27T00:11:02.155Z,71.70
2017-08-27T00:13:29.808Z,71.80
2017-08-27T00:15:57.486Z,71.50
2017-08-27T00:18:25.406Z,72.00
2017-08-27T00:20:53.357Z,71.50
2017-08-27T00:23:21.105Z,71.50
2017-08-27T00:25:48.850Z,71.50
2017-08-27T00:28:16.478Z,71.60
2017-08-27T00:30:44.199Z,71.70
2017-08-27T00:33:11.843Z,72.20
2017-08-27T00:35:39.533Z,71.30
2017-08-27T00:38:07.314Z,71.30
2017-08-27T00:40:35.030Z,71.80
2017-08-27T00:43:02.673Z,71.60
2017-08-27T00:45:30.362Z,71.80
2017-08-27T00:47:58.071Z,72.20
2017-08-27T00:50:25.814Z,71.90
2017-08-27T00:52:53.664Z,72.00
2017-08-27T00:55:21.324Z,71.80
2017-08-27T00:57:49.055Z,71.80
2017-08-27T01:00:16.754Z,71.80
2017-08-27T01:02:44.393Z,71.00
2017-08-27T01:05:12.195Z,71.10
2017-08-27T01:07:39.954Z,71.30
2017-08-27T01:10:07.615Z,71.70
2017-08-27T01:12:35.299Z,71.90
2017-08-27T01:15:03.129Z,72.00
2017-08-27T01:17:30.766Z,71.90
2017-08-27T01:19:58.426Z,71.70
2017-08-27T01:22:26.285Z,71.90
2017-08-27T01:24:54.072Z,72.00
2017-08-27T01:27:21.819Z,71.90
2017-08-27T01:29:49.503Z,71.90
2017-08-27T01:32:17.134Z,72.00
2017-08-27T01:34:44.857Z,71.90
2017-08-27T01:37:12.602Z,72.10
2017-08-27T01:39:40.247Z,72.40
2017-08-27T01:42:07.998Z,72.50
2017-08-27T01:44:35.744Z,72.30
2017-08-27T01:47:03.491Z,73.00
2017-08-27T01:49:31.546Z,73.20
2017-08-27T01:51:59.288Z,73.50
2017-08-27T01:54:27.040Z,73.70
2017-08-27T01:56:54.683Z,73.10
2017-08-27T01:59:22.431Z,73.40
2017-08-27T02:01:50.079Z,73.20
2017-08-27T02:04:17.825Z,73.30
2017-08-27T02:06:45.571Z,73.10
2017-08-27T02:09:13.320Z,72.80
2017-08-27T02:11:41.064Z,72.50
2017-08-27T02:14:08.753Z,72.10
2017-08-27T02:16:36.459Z,72.40
2017-08-27T02:19:04.114Z,72.60
2017-08-27T02:21:31.954Z,72.60
2017-08-27T02:23:59.599Z,73.00
2017-08-27T02:26:27.244Z,72.80
2017-08-27T02:28:54.991Z,73.30
2017-08-27T02:31:22.635Z,73.20
2017-08-27T02:33:50.274Z,73.00
2017-08-27T02:36:17.987Z,73.00
2017-08-27T02:38:45.671Z,73.10
2017-08-27T02:41:13.419Z,73.30
2017-08-27T02:43:41.111Z,73.10
2017-08-27T02:46:08.819Z,73.30
2017-08-27T02:48:36.560Z,73.10
2017-08-27T02:51:04.308Z,72.40
2017-08-27T02:53:32.055Z,72.30
2017-08-27T02:55:59.699Z,72.60
2017-08-27T02:58:27.390Z,72.80
2017-08-27T03:00:55.025Z,73.30
2017-08-27T03:03:22.736Z,73.00
2017-08-27T03:05:50.586Z,73.10
2017-08-27T03:08:18.233Z,72.80
2017-08-27T03:10:45.875Z,72.90
2017-08-27T03:13:14.032Z,73.40
2017-08-27T03:15:41.675Z,72.60
2017-08-27T03:18:09.324Z,72.70
2017-08-27T03:20:37.173Z,72.60
2017-08-27T03:23:04.817Z,72.40
2017-08-27T03:25:32.445Z,72.20
2017-08-27T03:28:00.135Z,72.00
2017-08-27T03:30:27.783Z,72.10
2017-08-27T03:32:55.414Z,72.20
2017-08-27T03:35:23.146Z,72.30
2017-08-27T03:37:50.781Z,72.70
2017-08-27T03:40:18.416Z,72.60
2017-08-27T03:42:46.181Z,72.80
2017-08-27T03:45:13.928Z,72.80
2017-08-27T03:47:41.675Z,72.50
2017-08-27T03:50:09.458Z,72.30
2017-08-27T03:52:37.173Z,72.70
2017-08-27T03:55:04.832Z,73.60
2017-08-27T03:57:32.513Z,73.80
2017-08-27T04:00:00.209Z,74.00
2017-08-27T04:02:27.865Z,74.40
2017-08-27T04:04:55.541Z,74.70
2017-08-27T04:07:23.177Z,74.90
2017-08-27T04:09:50.890Z,75.10
2017-08-27T04:12:18.613Z,75.10
2017-08-27T04:14:46.250Z,74.70
2017-08-27T04:17:13.877Z,74.30
2017-08-27T04:19:41.674Z,74.80
2017-08-27T04:22:09.310Z,74.90
2017-08-27T04:24:36.941Z,75.00
2017-08-27T04:27:04.817Z,75.00
2017-08-27T04:29:32.486Z,74.80
2017-08-27T04:32:00.113Z,75.30
2017-08-27T04:34:27.955Z,75.40
2017-08-27T04:36:55.702Z,75.20
2017-08-27T04:39:23.346Z,75.00
2017-08-27T04:41:51.026Z,75.20
2017-08-27T04:44:18.739Z,75.00
2017-08-27T04:46:46.382Z,75.20
2017-08-27T04:49:14.144Z,74.90
2017-08-27T04:51:41.877Z,74.80
2017-08-27T04:54:09.766Z,74.70
2017-08-27T04:56:37.585Z,74.50
2017-08-27T04:59:05.334Z,74.10
2017-08-27T05:01:33.075Z,73.90
2017-08-27T05:04:00.761Z,73.60
2017-08-27T05:06:28.466Z,73.50
2017-08-27T05:08:56.099Z,72.60
2017-08-27T05:11:23.811Z,73.30
2017-08-27T05:13:51.709Z,72.90
2017-08-27T05:16:19.351Z,72.70
2017-08-27T05:18:47.204Z,72.80
2017-08-27T05:21:14.948Z,72.00
2017-08-27T05:23:42.598Z,71.90
2017-08-27T05:26:10.340Z,72.10
2017-08-27T05:28:38.090Z,71.60
2017-08-27T05:31:05.839Z,72.00
2017-08-27T05:33:33.790Z,71.90
2017-08-27T05:36:01.421Z,72.20
2017-08-27T05:38:29.080Z,71.90
2017-08-27T05:40:56.762Z,71.10
2017-08-27T05:43:24.471Z,71.60
2017-08-27T05:45:52.132Z,71.00
2017-08-27T05:48:19.834Z,70.90
2017-08-27T05:50:47.509Z,70.90
2017-08-27T05:53:15.143Z,71.10
2017-08-27T05:55:42.899Z,70.30
2017-08-27T05:58:10.528Z,69.70
2017-08-27T06:00:38.183Z,69.80
2017-08-27T06:03:06.041Z,69.90
2017-08-27T06:05:33.669Z,69.90
2017-08-27T06:08:01.332Z,70.20
2017-08-27T06:10:29.078Z,69.60
2017-08-27T06:12:56.710Z,70.00
2017-08-27T06:15:24.346Z,69.50
2017-08-27T06:17:52.098Z,69.30
2017-08-27T06:20:19.760Z,68.70
2017-08-27T06:22:47.402Z,68.80
2017-08-27T06:25:15.151Z,68.30
2017-08-27T06:27:42.826Z,68.30
2017-08-27T06:30:10.454Z,68.60
2017-08-27T06:32:38.395Z,69.30
2017-08-27T06:35:06.039Z,69.30
2017-08-27T06:37:33.684Z,68.60
2017-08-27T06:40:01.432Z,67.30
2017-08-27T06:42:29.075Z,65.30
2017-08-27T06:44:56.706Z,64.50
2017-08-27T06:47:24.571Z,65.10
2017-08-27T06:49:52.207Z,65.40
2017-08-27T06:52:19.859Z,64.20
2017-08-27T06:54:47.608Z,64.00
2017-08-27T06:57:15.251Z,64.20
2017-08-27T06:59:43.002Z,64.40
2017-08-27T07:02:10.705Z,63.80
2017-08-27T07:04:38.394Z,63.30
2017-08-27T07:07:06.038Z,62.30
2017-08-27T07:09:33.718Z,60.90
2017-08-27T07:12:01.429Z,62.10
2017-08-27T07:14:29.062Z,62.20
2017-08-27T07:16:56.822Z,62.30
2017-08-27T07:19:24.468Z,61.90
2017-08-27T07:21:52.110Z,61.70
2017-08-27T07:24:19.862Z,63.20
2017-08-27T07:26:47.502Z,62.70
2017-08-27T07:29:15.148Z,63.20
2017-08-27T07:31:42.896Z,63.70
2017-08-27T07:34:10.547Z,63.70
2017-08-27T07:36:38.191Z,64.40
2017-08-27T07:39:06.127Z,65.00
2017-08-27T07:41:33.762Z,63.30
2017-08-27T07:44:01.429Z,62.30
2017-08-27T07:46:29.115Z,62.20
2017-08-27T07:48:56.751Z,60.90
2017-08-27T07:51:24.383Z,62.10
2017-08-27T07:53:52.111Z,61.30
2017-08-27T07:56:19.746Z,61.20
2017-08-27T07:58:47.375Z,62.00
2017-08-27T08:01:15.047Z,61.70
2017-08-27T08:03:42.676Z,61.20
2017-08-27T08:06:10.437Z,60.20
2017-08-27T08:08:38.112Z,60.70
2017-08-27T08:11:05.832Z,62.50
2017-08-27T08:13:33.479Z,61.20
2017-08-27T08:16:01.224Z,60.70
2017-08-27T08:18:28.867Z,61.90
2017-08-27T08:20:56.498Z,62.40
2017-08-27T08:23:24.260Z,61.60
2017-08-27T08:25:51.905Z,61.50
2017-08-27T08:28:19.550Z,62.00
2017-08-27T08:30:47.229Z,61.60
2017-08-27T08:33:14.941Z,60.00
2017-08-27T08:35:42.585Z,60.90
2017-08-27T08:38:10.257Z,58.90
2017-08-27T08:40:37.982Z,59.20
2017-08-27T08:43:05.625Z,57.50
2017-08-27T08:45:33.397Z,56.60
2017-08-27T08:48:01.021Z,58.70
2017-08-27T08:50:28.765Z,57.30
2017-08-27T08:52:56.512Z,57.00
2017-08-27T08:55:24.144Z,57.50
2017-08-27T08:57:51.779Z,56.20
2017-08-27T09:00:19.486Z,57.30
2017-08-27T09:02:47.194Z,56.00
2017-08-27T09:05:14.939Z,55.60
2017-08-27T09:07:42.688Z,56.00
2017-08-27T09:10:10.323Z,56.10
2017-08-27T09:12:37.980Z,56.80
2017-08-27T09:15:05.730Z,56.60
2017-08-27T09:17:33.350Z,57.70
2017-08-27T09:20:01.118Z,58.10
2017-08-27T09:22:28.823Z,59.40
2017-08-27T09:24:56.510Z,59.30
2017-08-27T09:27:24.218Z,58.70
2017-08-27T09:29:52.006Z,58.50
2017-08-27T09:32:19.655Z,58.80
2017-08-27T09:34:47.273Z,58.20
2017-08-27T09:37:14.950Z,57.50
2017-08-27T09:39:42.590Z,58.70
2017-08-27T09:42:10.330Z,58.50
2017-08-27T09:44:38.184Z,57.70
2017-08-27T09:47:05.827Z,58.30
2017-08-27T09:49:33.471Z,58.70
2017-08-27T09:52:01.250Z,58.10
2017-08-27T09:54:28.877Z,57.80
2017-08-27T09:56:56.614Z,58.40
2017-08-27T09:59:24.361Z,58.10
2017-08-27T10:01:52.010Z,58.20
2017-08-27T10:04:19.751Z,57.40
2017-08-27T10:06:47.504Z,58.10
2017-08-27T10:09:15.244Z,58.50
2017-08-27T10:11:42.991Z,58.10
2017-08-27T10:14:10.740Z,58.20
2017-08-27T10:16:38.387Z,58.60
2017-08-27T10:19:06.031Z,58.10
2017-08-27T10:21:33.726Z,58.90
2017-08-27T10:24:01.358Z,58.70
2017-08-27T10:26:29.068Z,56.90
2017-08-27T10:28:56.759Z,56.20
2017-08-27T10:31:24.394Z,56.80
2017-08-27T10:33:52.059Z,56.40
2017-08-27T10:36:19.954Z,56.20
2017-08-27T10:38:47.601Z,56.90
2017-08-27T10:41:15.233Z,57.40
2017-08-27T10:43:42.991Z,57.10
2017-08-27T10:46:10.737Z,55.80
2017-08-27T10:48:38.384Z,55.80
2017-08-27T10:51:06.133Z,56.40
2017-08-27T10:53:33.879Z,56.20
2017-08-27T10:56:01.510Z,54.60
2017-08-27T10:58:29.272Z,54.20
2017-08-27T11:00:56.916Z,54.80
2017-08-27T11:03:24.664Z,55.40
2017-08-27T11:05:52.410Z,55.50
2017-08-27T11:08:20.157Z,55.70
2017-08-27T11:10:47.807Z,55.70
2017-08-27T11:13:15.653Z,55.10
2017-08-27T11:15:43.399Z,55.00
2017-08-27T11:18:11.350Z,55.20
2017-08-27T11:20:39.103Z,54.50
2017-08-27T11:23:06.847Z,55.80
2017-08-27T11:25:34.482Z,56.10
2017-08-27T11:28:02.239Z,56.40
2017-08-27T11:30:29.986Z,56.10
2017-08-27T11:32:57.629Z,57.20
2017-08-27T11:35:25.323Z,57.30
2017-08-27T11:37:53.023Z,58.00
2017-08-27T11:40:20.666Z,58.70
2017-08-27T11:42:48.464Z,58.20
2017-08-27T11:45:16.161Z,57.50
2017-08-27T11:47:43.806Z,56.90
2017-08-27T11:50:11.510Z,55.50
2017-08-27T11:52:39.201Z,57.20
2017-08-27T11:55:06.949Z,57.20
2017-08-27T11:57:34.629Z,58.40
2017-08-27T12:00:02.340Z,57.60
2017-08-27T12:02:29.984Z,56.70
2017-08-27T12:04:57.732Z,58.40
2017-08-27T12:07:25.376Z,57.30
2017-08-27T12:09:53.021Z,56.70
2017-08-27T12:12:20.769Z,55.90
2017-08-27T12:14:48.490Z,57.40
2017-08-27T12:17:16.117Z,57.80
2017-08-27T12:19:44.010Z,59.00
2017-08-27T12:22:11.756Z,60.00
2017-08-27T12:24:39.388Z,59.60
2017-08-27T12:27:07.324Z,59.30
2017-08-27T12:29:34.956Z,60.10
2017-08-27T12:32:02.647Z,61.90
2017-08-27T12:34:30.394Z,61.70
2017-08-27T12:36:58.037Z,60.40
2017-08-27T12:39:25.682Z,55.50
2017-08-27T12:41:53.532Z,54.60
2017-08-27T12:44:21.176Z,56.30
2017-08-27T12:46:48.824Z,55.80
2017-08-27T12:49:16.501Z,53.10
2017-08-27T12:51:44.215Z,54.60
2017-08-27T12:54:11.960Z,56.20
2017-08-27T12:56:39.649Z,54.50
2017-08-27T12:59:07.355Z,54.90
2017-08-27T13:01:34.982Z,56.00
2017-08-27T13:04:02.850Z,57.10
2017-08-27T13:06:30.494Z,57.90
2017-08-27T13:08:58.242Z,57.40
2017-08-27T13:11:25.989Z,57.30
2017-08-27T13:13:53.633Z,59.30
2017-08-27T13:16:21.283Z,58.90
2017-08-27T13:18:49.025Z,58.90
2017-08-27T13:21:16.654Z,57.00
2017-08-27T13:23:44.320Z,57.90
2017-08-27T13:26:12.027Z,59.00
2017-08-27T13:28:39.662Z,57.60
2017-08-27T13:31:07.343Z,59.10
2017-08-27T13:33:35.026Z,60.10
2017-08-27T13:36:02.746Z,60.60
2017-08-27T13:38:30.493Z,62.00
2017-08-27T13:40:58.241Z,61.80
2017-08-27T13:43:25.885Z,62.90
2017-08-27T13:45:53.633Z,63.50
2017-08-27T13:48:21.379Z,64.90
2017-08-27T13:50:49.022Z,68.40
2017-08-27T13:53:16.670Z,68.10
2017-08-27T13:55:44.363Z,70.10
2017-08-27T13:58:12.006Z,73.90
2017-08-27T14:00:39.650Z,72.90
2017-08-27T14:03:07.333Z,74.40
2017-08-27T14:05:34.970Z,73.40
2017-08-27T14:08:02.642Z,73.10
2017-08-27T14:10:30.389Z,74.70
2017-08-27T14:12:58.138Z,74.70
2017-08-27T14:15:25.779Z,75.80
2017-08-27T14:17:53.567Z,75.60
2017-08-27T14:20:21.275Z,77.50
2017-08-27T14:22:48.947Z,78.00
2017-08-27T14:25:16.685Z,75.50
2017-08-27T14:27:44.414Z,74.10
2017-08-27T14:30:12.169Z,72.90
2017-08-27T14:32:39.954Z,75.70
2017-08-27T14:35:07.605Z,76.10
2017-08-27T14:37:35.239Z,76.00
2017-08-27T14:40:02.948Z,76.30
2017-08-27T14:42:30.573Z,76.70
2017-08-27T14:44:58.210Z,77.40
2017-08-27T14:47:25.984Z,77.20
2017-08-27T14:49:53.743Z,76.90
2017-08-27T14:52:21.479Z,76.10
2017-08-27T14:54:49.227Z,77.30
2017-08-27T14:57:16.975Z,78.70
2017-08-27T14:59:44.617Z,78.70
2017-08-27T15:02:12.316Z,77.80
2017-08-27T15:04:39.946Z,76.80
2017-08-27T15:07:07.582Z,76.50
2017-08-27T15:09:35.405Z,77.20
2017-08-27T15:12:03.030Z,78.00
2017-08-27T15:14:30.693Z,78.40
2017-08-27T15:16:58.406Z,78.00
2017-08-27T15:19:26.033Z,77.90
2017-08-27T15:21:53.714Z,78.30
2017-08-27T15:24:21.471Z,77.80
2017-08-27T15:26:49.225Z,77.20
2017-08-27T15:29:16.971Z,77.30
2017-08-27T15:31:44.822Z,78.20
2017-08-27T15:34:12.465Z,78.00
2017-08-27T15:36:40.098Z,76.90
2017-08-27T15:39:07.799Z,77.60
2017-08-27T15:41:35.435Z,77.80
2017-08-27T15:44:03.151Z,78.90
2017-08-27T15:46:30.942Z,78.10
2017-08-27T15:48:58.646Z,78.10
2017-08-27T15:51:26.392Z,77.70
2017-08-27T15:53:54.078Z,76.90
2017-08-27T15:56:21.710Z,76.50
2017-08-27T15:58:49.378Z,76.30
2017-08-27T16:01:17.057Z,77.10
2017-08-27T16:03:44.689Z,77.20
2017-08-27T16:06:12.363Z,75.70
2017-08-27T16:08:40.113Z,76.30
2017-08-27T16:11:07.859Z,77.00
2017-08-27T16:13:35.503Z,76.80
2017-08-27T16:16:03.254Z,76.30
2017-08-27T16:18:30.897Z,75.40
2017-08-27T16:20:58.586Z,76.20
2017-08-27T16:23:26.390Z,76.70
2017-08-27T16:25:54.137Z,77.50
2017-08-27T16:28:21.890Z,77.50
2017-08-27T16:30:49.631Z,79.00
2017-08-27T16:33:17.298Z,79.10
2017-08-27T16:35:44.971Z,78.50
2017-08-27T16:38:12.771Z,78.00
2017-08-27T16:40:40.517Z,78.70
2017-08-27T16:43:08.320Z,78.30
2017-08-27T16:45:36.054Z,78.00
2017-08-27T16:48:03.738Z,78.00
2017-08-27T16:50:31.510Z,78.50
2017-08-27T16:52:59.360Z,78.10
2017-08-27T16:55:27.003Z,79.10
2017-08-27T16:57:54.629Z,78.70
2017-08-27T17:00:22.396Z,79.60
2017-08-27T17:02:50.040Z,79.30
2017-08-27T17:05:17.684Z,79.20
2017-08-27T17:07:45.534Z,78.90
2017-08-27T17:10:13.219Z,79.80
2017-08-27T17:12:40.928Z,79.90
2017-08-27T17:15:08.779Z,79.80
2017-08-27T17:17:36.628Z,79.80
2017-08-27T17:20:04.301Z,79.90
2017-08-27T17:22:32.123Z,80.50
2017-08-27T17:24:59.874Z,80.20
2017-08-27T17:27:27.561Z,80.70
2017-08-27T17:29:55.301Z,81.40
2017-08-27T17:32:22.987Z,81.70
2017-08-27T17:34:50.670Z,81.20
2017-08-27T17:37:18.402Z,81.10
2017-08-27T17:39:46.155Z,81.00
2017-08-27T17:42:13.895Z,82.10
2017-08-27T17:44:41.744Z,82.10
2017-08-27T17:47:09.422Z,82.00
2017-08-27T17:49:37.103Z,82.40
2017-08-27T17:52:04.843Z,82.90
2017-08-27T17:54:32.539Z,82.90
2017-08-27T17:57:00.280Z,82.70
2017-08-27T17:59:28.031Z,82.80
2017-08-27T18:01:55.977Z,82.60
2017-08-27T18:04:23.650Z,82.80
2017-08-27T18:06:51.577Z,82.20
2017-08-27T18:09:19.250Z,82.40
2017-08-27T18:11:46.937Z,82.60
2017-08-27T18:14:14.713Z,82.70
2017-08-27T18:16:42.460Z,82.20
2017-08-27T18:19:10.118Z,82.40
2017-08-27T18:21:37.810Z,82.60
2017-08-27T18:24:05.500Z,82.80
2017-08-27T18:26:33.144Z,82.60
2017-08-27T18:29:00.936Z,82.50
2017-08-27T18:31:28.639Z,82.60
2017-08-27T18:33:56.314Z,83.00
2017-08-27T18:36:24.134Z,83.20
2017-08-27T18:38:51.765Z,83.10
2017-08-27T18:41:19.421Z,83.00
2017-08-27T18:43:47.173Z,83.40
2017-08-27T18:46:14.916Z,82.60
2017-08-27T18:48:42.663Z,82.70
2017-08-27T18:51:10.361Z,83.00
2017-08-27T18:53:38.058Z,83.40
2017-08-27T18:56:05.703Z,83.50
2017-08-27T18:58:33.450Z,83.60
2017-08-27T19:01:01.082Z,83.40
2017-08-27T19:03:28.762Z,83.20
2017-08-27T19:05:56.588Z,82.90
2017-08-27T19:08:24.223Z,82.60
2017-08-27T19:10:51.850Z,82.70
2017-08-27T19:13:19.727Z,82.70
2017-08-27T19:15:47.475Z,82.60
2017-08-27T19:18:15.223Z,82.60
2017-08-27T19:20:43.073Z,82.00
2017-08-27T19:23:10.708Z,82.10
2017-08-27T19:25:38.365Z,82.70
2017-08-27T19:28:06.443Z,83.20
2017-08-27T19:30:34.167Z,82.90
2017-08-27T19:33:01.816Z,82.40
2017-08-27T19:35:29.558Z,82.20
2017-08-27T19:37:57.182Z,82.40
2017-08-27T19:40:24.846Z,83.00
2017-08-27T19:42:52.527Z,83.20
2017-08-27T19:45:20.239Z,83.20
2017-08-27T19:47:47.986Z,82.90
2017-08-27T19:50:15.712Z,83.20
2017-08-27T19:52:43.360Z,83.60
2017-08-27T19:55:11.329Z,83.60
2017-08-27T19:57:39.937Z,83.60
2017-08-27T20:00:08.472Z,83.50
2017-08-27T20:02:36.374Z,83.40
2017-08-27T20:05:04.102Z,83.20
2017-08-27T20:07:31.751Z,83.30
2017-08-27T20:09:59.453Z,83.70
2017-08-27T20:12:27.202Z,83.50
2017-08-27T20:14:54.947Z,83.70
2017-08-27T20:17:22.592Z,83.60
2017-08-27T20:19:50.339Z,84.00
2017-08-27T20:22:18.089Z,83.80
2017-08-27T20:24:45.835Z,84.10
2017-08-27T20:27:13.515Z,83.80
2017-08-27T20:29:41.150Z,84.10
2017-08-27T20:32:08.789Z,84.00
2017-08-27T20:34:36.620Z,83.90
2017-08-27T20:37:04.367Z,84.00
2017-08-27T20:39:32.116Z,84.10
2017-08-27T20:41:59.906Z,83.70
2017-08-27T20:44:27.608Z,82.70
2017-08-27T20:46:55.252Z,81.90
2017-08-27T20:49:22.949Z,82.80
2017-08-27T20:51:50.593Z,83.10
2017-08-27T20:54:18.247Z,83.80
2017-08-27T20:56:46.010Z,84.00
2017-08-27T20:59:13.681Z,84.40
2017-08-27T21:01:41.428Z,84.40
2017-08-27T21:04:09.179Z,84.10
2017-08-27T21:06:36.822Z,83.20
2017-08-27T21:09:04.530Z,83.10
2017-08-27T21:11:32.318Z,83.40
2017-08-27T21:14:00.065Z,84.10
2017-08-27T21:16:27.708Z,83.50
2017-08-27T21:18:55.518Z,83.70
2017-08-27T21:21:23.204Z,84.10
2017-08-27T21:23:50.848Z,84.60
2017-08-27T21:26:18.529Z,84.10
2017-08-27T21:28:46.170Z,83.80
2017-08-27T21:31:13.885Z,83.80
2017-08-27T21:33:41.735Z,84.00
2017-08-27T21:36:09.483Z,83.90
2017-08-27T21:38:37.118Z,84.10
2017-08-27T21:41:04.979Z,84.20
2017-08-27T21:43:32.627Z,84.00
2017-08-27T21:46:00.267Z,84.30
2017-08-27T21:48:27.958Z,84.60
2017-08-27T21:50:55.660Z,84.50
2017-08-27T21:53:23.305Z,84.30
2017-08-27T21:55:50.982Z,84.80
2017-08-27T21:58:18.696Z,84.70
2017-08-27T22:00:46.444Z,84.60
2017-08-27T22:03:14.191Z,84.40
2017-08-27T22:05:41.937Z,84.10
2017-08-27T22:08:09.684Z,84.30
2017-08-27T22:10:37.640Z,84.50
2017-08-27T22:13:05.284Z,84.30
2017-08-27T22:15:32.929Z,84.60
2017-08-27T22:18:00.682Z,84.20
2017-08-27T22:20:28.465Z,84.00
2017-08-27T22:22:56.171Z,84.10
2017-08-27T22:25:24.021Z,84.20
2017-08-27T22:27:51.664Z,84.70
2017-08-27T22:30:19.372Z,84.70
2017-08-27T22:32:47.160Z,84.90
2017-08-27T22:35:14.798Z,84.90
2017-08-27T22:37:42.438Z,84.90
2017-08-27T22:40:10.195Z,84.80
2017-08-27T22:42:37.946Z,84.80
2017-08-27T22:45:05.694Z,84.60
2017-08-27T22:47:33.379Z,84.60
2017-08-27T22:50:01.010Z,84.90
2017-08-27T22:52:28.729Z,84.70
2017-08-27T22:54:56.477Z,84.70
2017-08-27T22:57:24.158Z,84.70
2017-08-27T22:59:51.842Z,84.90
2017-08-27T23:02:19.616Z,85.20
2017-08-27T23:04:48.290Z,85.10
2017-08-27T23:07:16.003Z,85.00
2017-08-27T23:09:44.091Z,85.50
2017-08-27T23:12:11.844Z,85.50
2017-08-27T23:14:39.582Z,85.40
2017-08-27T23:17:07.331Z,85.00
2017-08-27T23:19:34.974Z,84.70
2017-08-27T23:22:02.619Z,85.30
2017-08-27T23:24:30.367Z,85.60
2017-08-27T23:26:58.121Z,85.70
2017-08-27T23:29:25.762Z,85.50
2017-08-27T23:31:53.609Z,85.60
2017-08-27T23:34:21.355Z,85.50
2017-08-27T23:36:48.999Z,85.40
2017-08-27T23:39:16.850Z,85.40
2017-08-27T23:41:44.495Z,85.50
2017-08-27T23:44:12.130Z,85.30
2017-08-27T23:46:39.831Z,85.10
2017-08-27T23:49:07.460Z,85.20
2017-08-27T23:51:35.094Z,85.30
2017-08-27T23:54:02.771Z,85.00
2017-08-27T23:56:30.468Z,85.00
2017-08-27T23:58:58.112Z,84.80
